sensor_id;sensor_type;location;lat;lon;timestamp;pressure;altitude;pressure_sealevel;temperature;humidity
3464;BME280;3551;41.578;24.706;2024-02-21T00:00:41;91708.91;;;1.89;100.00
3464;BME280;3551;41.578;24.706;2024-02-21T00:03:07;91707.53;;;1.50;100.00
3464;BME280;3551;41.578;24.706;2024-02-21T00:05:34;91702.00;;;1.43;100.00
3464;BME280;3551;41.578;24.706;2024-02-21T00:08:03;91697.75;;;1.09;100.00
3464;BME280;3551;41.578;24.706;2024-02-21T00:10:30;91712.22;;;1.65;100.00
3464;BME280;3551;41.578;24.706;2024-02-21T00:12:57;91715.66;;;1.78;100.00
3464;BME280;3551;41.578;24.706;2024-02-21T00:15:25;91709.63;;;1.78;100.00
3464;BME280;3551;41.578;24.706;2024-02-21T00:17:52;91701.19;;;1.63;100.00
3464;BME280;3551;41.578;24.706;2024-02-21T00:20:19;91700.19;;;1.56;100.00
3464;BME280;3551;41.578;24.706;2024-02-21T00:22:46;91706.44;;;1.84;100.00
3464;BME280;3551;41.578;24.706;2024-02-21T00:25:14;91718.72;;;2.01;100.00
3464;BME280;3551;41.578;24.706;2024-02-21T00:27:41;91715.59;;;1.99;100.00
3464;BME280;3551;41.578;24.706;2024-02-21T00:30:09;91753.38;;;1.91;100.00
3464;BME280;3551;41.578;24.706;2024-02-21T00:32:38;91717.06;;;1.76;100.00
3464;BME280;3551;41.578;24.706;2024-02-21T00:35:05;91716.84;;;1.68;100.00
3464;BME280;3551;41.578;24.706;2024-02-21T00:37:32;91722.63;;;1.62;100.00
3464;BME280;3551;41.578;24.706;2024-02-21T00:39:59;91732.66;;;1.68;100.00
3464;BME280;3551;41.578;24.706;2024-02-21T00:42:27;91704.53;;;1.73;100.00
3464;BME280;3551;41.578;24.706;2024-02-21T00:44:54;91729.72;;;1.82;100.00
3464;BME280;3551;41.578;24.706;2024-02-21T00:47:21;91711.06;;;1.87;100.00
3464;BME280;3551;41.578;24.706;2024-02-21T00:49:48;91695.81;;;1.93;100.00
3464;BME280;3551;41.578;24.706;2024-02-21T00:52:17;91693.25;;;1.84;100.00
3464;BME280;3551;41.578;24.706;2024-02-21T00:54:45;91694.94;;;1.89;100.00
3464;BME280;3551;41.578;24.706;2024-02-21T00:57:12;91697.19;;;1.78;100.00
3464;BME280;3551;41.578;24.706;2024-02-21T00:59:40;91696.69;;;1.64;100.00
3464;BME280;3551;41.578;24.706;2024-02-21T01:02:07;91703.25;;;1.79;100.00
3464;BME280;3551;41.578;24.706;2024-02-21T01:04:34;91679.38;;;1.63;100.00
3464;BME280;3551;41.578;24.706;2024-02-21T01:07:02;91712.41;;;1.60;100.00
3464;BME280;3551;41.578;24.706;2024-02-21T01:09:29;91673.84;;;1.56;100.00
3464;BME280;3551;41.578;24.706;2024-02-21T01:11:55;91691.13;;;1.45;100.00
3464;BME280;3551;41.578;24.706;2024-02-21T01:14:22;91670.56;;;1.59;100.00
3464;BME280;3551;41.578;24.706;2024-02-21T01:16:51;91697.41;;;1.73;100.00
3464;BME280;3551;41.578;24.706;2024-02-21T01:19:18;91700.44;;;1.63;100.00
3464;BME280;3551;41.578;24.706;2024-02-21T01:21:45;91669.19;;;1.74;100.00
3464;BME280;3551;41.578;24.706;2024-02-21T01:24:12;91667.53;;;1.81;100.00
3464;BME280;3551;41.578;24.706;2024-02-21T01:26:41;91668.97;;;1.79;100.00
3464;BME280;3551;41.578;24.706;2024-02-21T01:29:11;91656.03;;;1.86;100.00
3464;BME280;3551;41.578;24.706;2024-02-21T01:31:39;91679.19;;;1.80;100.00
3464;BME280;3551;41.578;24.706;2024-02-21T01:34:07;91670.78;;;1.99;100.00
3464;BME280;3551;41.578;24.706;2024-02-21T01:36:34;91663.81;;;1.82;100.00
3464;BME280;3551;41.578;24.706;2024-02-21T01:39:01;91654.94;;;1.87;100.00
3464;BME280;3551;41.578;24.706;2024-02-21T01:41:29;91669.34;;;1.89;100.00
3464;BME280;3551;41.578;24.706;2024-02-21T01:43:56;91678.44;;;1.80;100.00
3464;BME280;3551;41.578;24.706;2024-02-21T01:46:24;91672.47;;;1.70;100.00
3464;BME280;3551;41.578;24.706;2024-02-21T01:48:54;91666.84;;;1.60;100.00
3464;BME280;3551;41.578;24.706;2024-02-21T01:51:22;91670.34;;;1.64;100.00
3464;BME280;3551;41.578;24.706;2024-02-21T01:53:51;91664.88;;;1.69;100.00
3464;BME280;3551;41.578;24.706;2024-02-21T01:56:18;91670.50;;;1.47;100.00
3464;BME280;3551;41.578;24.706;2024-02-21T01:58:47;91705.22;;;1.28;100.00
3464;BME280;3551;41.578;24.706;2024-02-21T02:01:16;91691.91;;;1.45;100.00
3464;BME280;3551;41.578;24.706;2024-02-21T02:03:45;91659.88;;;1.55;100.00
3464;BME280;3551;41.578;24.706;2024-02-21T02:06:12;91681.03;;;1.47;100.00
3464;BME280;3551;41.578;24.706;2024-02-21T02:08:43;91662.22;;;1.57;100.00
3464;BME280;3551;41.578;24.706;2024-02-21T02:11:13;91653.31;;;1.61;100.00
3464;BME280;3551;41.578;24.706;2024-02-21T02:13:40;91674.00;;;1.72;100.00
3464;BME280;3551;41.578;24.706;2024-02-21T02:16:07;91647.78;;;1.75;100.00
3464;BME280;3551;41.578;24.706;2024-02-21T02:18:34;91674.75;;;1.60;100.00
3464;BME280;3551;41.578;24.706;2024-02-21T02:21:03;91649.44;;;1.80;100.00
3464;BME280;3551;41.578;24.706;2024-02-21T02:23:34;91658.31;;;1.75;100.00
3464;BME280;3551;41.578;24.706;2024-02-21T02:26:03;91630.00;;;1.96;100.00
3464;BME280;3551;41.578;24.706;2024-02-21T02:28:32;91630.34;;;1.95;100.00
3464;BME280;3551;41.578;24.706;2024-02-21T02:30:59;91647.50;;;2.01;100.00
3464;BME280;3551;41.578;24.706;2024-02-21T02:33:26;91658.09;;;1.80;100.00
3464;BME280;3551;41.578;24.706;2024-02-21T02:35:53;91626.59;;;1.96;100.00
3464;BME280;3551;41.578;24.706;2024-02-21T02:38:20;91634.75;;;2.03;100.00
3464;BME280;3551;41.578;24.706;2024-02-21T02:40:48;91629.91;;;2.05;100.00
3464;BME280;3551;41.578;24.706;2024-02-21T02:43:15;91624.53;;;2.01;100.00
3464;BME280;3551;41.578;24.706;2024-02-21T02:45:42;91644.13;;;2.12;100.00
3464;BME280;3551;41.578;24.706;2024-02-21T02:48:09;91643.00;;;2.13;100.00
3464;BME280;3551;41.578;24.706;2024-02-21T02:50:36;91622.88;;;2.09;100.00
3464;BME280;3551;41.578;24.706;2024-02-21T02:53:03;91635.84;;;1.90;100.00
3464;BME280;3551;41.578;24.706;2024-02-21T02:55:33;91644.84;;;1.89;100.00
3464;BME280;3551;41.578;24.706;2024-02-21T02:58:04;91637.53;;;1.41;100.00
3464;BME280;3551;41.578;24.706;2024-02-21T03:00:31;91636.94;;;1.56;100.00
3464;BME280;3551;41.578;24.706;2024-02-21T03:03:03;91651.66;;;1.57;100.00
3464;BME280;3551;41.578;24.706;2024-02-21T03:05:31;91642.28;;;1.80;100.00
3464;BME280;3551;41.578;24.706;2024-02-21T03:07:58;91640.13;;;1.94;100.00
3464;BME280;3551;41.578;24.706;2024-02-21T03:10:26;91639.88;;;1.87;100.00
3464;BME280;3551;41.578;24.706;2024-02-21T03:12:53;91626.81;;;1.91;100.00
3464;BME280;3551;41.578;24.706;2024-02-21T03:15:22;91646.00;;;1.79;100.00
3464;BME280;3551;41.578;24.706;2024-02-21T03:17:51;91633.81;;;1.75;100.00
3464;BME280;3551;41.578;24.706;2024-02-21T03:20:18;91641.75;;;1.87;100.00
3464;BME280;3551;41.578;24.706;2024-02-21T03:22:46;91642.41;;;1.96;100.00
3464;BME280;3551;41.578;24.706;2024-02-21T03:25:13;91645.38;;;1.82;100.00
3464;BME280;3551;41.578;24.706;2024-02-21T03:27:40;91631.31;;;1.90;100.00
3464;BME280;3551;41.578;24.706;2024-02-21T03:30:08;91644.41;;;1.87;100.00
3464;BME280;3551;41.578;24.706;2024-02-21T03:32:36;91675.19;;;1.95;100.00
3464;BME280;3551;41.578;24.706;2024-02-21T03:35:05;91693.84;;;1.90;100.00
3464;BME280;3551;41.578;24.706;2024-02-21T03:37:33;91642.50;;;1.87;100.00
3464;BME280;3551;41.578;24.706;2024-02-21T03:39:59;91655.59;;;1.96;100.00
3464;BME280;3551;41.578;24.706;2024-02-21T03:42:28;91683.59;;;1.88;100.00
3464;BME280;3551;41.578;24.706;2024-02-21T03:44:57;91643.41;;;1.91;100.00
3464;BME280;3551;41.578;24.706;2024-02-21T03:47:27;91656.34;;;1.84;100.00
3464;BME280;3551;41.578;24.706;2024-02-21T03:49:58;91651.28;;;1.79;100.00
3464;BME280;3551;41.578;24.706;2024-02-21T03:52:26;91658.25;;;1.96;100.00
3464;BME280;3551;41.578;24.706;2024-02-21T03:54:53;91638.03;;;2.00;100.00
3464;BME280;3551;41.578;24.706;2024-02-21T03:57:20;91677.59;;;2.00;100.00
3464;BME280;3551;41.578;24.706;2024-02-21T03:59:50;91652.03;;;2.12;100.00
3464;BME280;3551;41.578;24.706;2024-02-21T04:02:17;91652.81;;;2.13;100.00
3464;BME280;3551;41.578;24.706;2024-02-21T04:04:45;91641.78;;;2.11;100.00
3464;BME280;3551;41.578;24.706;2024-02-21T04:07:15;91642.69;;;2.27;100.00
3464;BME280;3551;41.578;24.706;2024-02-21T04:09:42;91635.44;;;2.24;100.00
3464;BME280;3551;41.578;24.706;2024-02-21T04:12:09;91668.31;;;2.26;100.00
3464;BME280;3551;41.578;24.706;2024-02-21T04:14:36;91645.53;;;2.22;100.00
3464;BME280;3551;41.578;24.706;2024-02-21T04:17:06;91642.81;;;2.18;100.00
3464;BME280;3551;41.578;24.706;2024-02-21T04:19:33;91634.00;;;2.14;100.00
3464;BME280;3551;41.578;24.706;2024-02-21T04:22:00;91644.97;;;2.16;100.00
3464;BME280;3551;41.578;24.706;2024-02-21T04:24:29;91650.38;;;2.20;100.00
3464;BME280;3551;41.578;24.706;2024-02-21T04:26:56;91671.47;;;2.08;100.00
3464;BME280;3551;41.578;24.706;2024-02-21T04:29:25;91651.38;;;2.15;100.00
3464;BME280;3551;41.578;24.706;2024-02-21T04:31:53;91644.22;;;2.16;100.00
3464;BME280;3551;41.578;24.706;2024-02-21T04:34:20;91642.16;;;2.21;100.00
3464;BME280;3551;41.578;24.706;2024-02-21T04:36:47;91652.16;;;2.16;100.00
3464;BME280;3551;41.578;24.706;2024-02-21T04:39:14;91669.09;;;2.27;100.00
3464;BME280;3551;41.578;24.706;2024-02-21T04:41:45;91630.84;;;2.33;100.00
3464;BME280;3551;41.578;24.706;2024-02-21T04:44:12;91646.31;;;2.35;100.00
3464;BME280;3551;41.578;24.706;2024-02-21T04:46:42;91654.78;;;2.40;100.00
3464;BME280;3551;41.578;24.706;2024-02-21T04:49:09;91650.16;;;2.25;100.00
3464;BME280;3551;41.578;24.706;2024-02-21T04:51:36;91653.56;;;2.38;100.00
3464;BME280;3551;41.578;24.706;2024-02-21T04:54:04;91657.09;;;2.30;100.00
3464;BME280;3551;41.578;24.706;2024-02-21T04:56:31;91651.38;;;2.28;100.00
3464;BME280;3551;41.578;24.706;2024-02-21T04:59:01;91660.41;;;2.39;100.00
3464;BME280;3551;41.578;24.706;2024-02-21T05:01:28;91656.66;;;2.40;100.00
3464;BME280;3551;41.578;24.706;2024-02-21T05:03:55;91690.09;;;2.36;100.00
3464;BME280;3551;41.578;24.706;2024-02-21T05:06:23;91656.97;;;2.26;100.00
3464;BME280;3551;41.578;24.706;2024-02-21T05:08:51;91669.28;;;2.34;100.00
3464;BME280;3551;41.578;24.706;2024-02-21T05:11:18;91658.19;;;2.41;100.00
3464;BME280;3551;41.578;24.706;2024-02-21T05:13:45;91658.19;;;2.41;100.00
3464;BME280;3551;41.578;24.706;2024-02-21T05:16:15;91660.19;;;2.44;100.00
3464;BME280;3551;41.578;24.706;2024-02-21T05:18:42;91658.06;;;2.25;100.00
3464;BME280;3551;41.578;24.706;2024-02-21T05:21:09;91693.66;;;2.19;100.00
3464;BME280;3551;41.578;24.706;2024-02-21T05:23:36;91653.91;;;2.36;100.00
3464;BME280;3551;41.578;24.706;2024-02-21T05:26:11;91659.50;;;2.35;100.00
3464;BME280;3551;41.578;24.706;2024-02-21T05:28:39;91672.94;;;2.30;100.00
3464;BME280;3551;41.578;24.706;2024-02-21T05:31:06;91659.28;;;2.40;100.00
3464;BME280;3551;41.578;24.706;2024-02-21T05:33:35;91668.22;;;2.47;100.00
3464;BME280;3551;41.578;24.706;2024-02-21T05:36:04;91673.50;;;2.47;100.00
3464;BME280;3551;41.578;24.706;2024-02-21T05:38:31;91659.09;;;2.33;100.00
3464;BME280;3551;41.578;24.706;2024-02-21T05:40:58;91671.03;;;2.18;100.00
3464;BME280;3551;41.578;24.706;2024-02-21T05:43:25;91676.91;;;2.36;100.00
3464;BME280;3551;41.578;24.706;2024-02-21T05:45:54;91671.25;;;2.25;100.00
3464;BME280;3551;41.578;24.706;2024-02-21T05:48:22;91680.75;;;2.50;100.00
3464;BME280;3551;41.578;24.706;2024-02-21T05:50:50;91679.66;;;2.39;100.00
3464;BME280;3551;41.578;24.706;2024-02-21T05:53:18;91684.69;;;2.32;100.00
3464;BME280;3551;41.578;24.706;2024-02-21T05:55:45;91673.78;;;2.34;100.00
3464;BME280;3551;41.578;24.706;2024-02-21T05:58:12;91678.53;;;2.40;100.00
3464;BME280;3551;41.578;24.706;2024-02-21T06:00:39;91695.25;;;2.44;100.00
3464;BME280;3551;41.578;24.706;2024-02-21T06:03:09;91688.22;;;2.60;100.00
3464;BME280;3551;41.578;24.706;2024-02-21T06:05:37;91682.06;;;2.44;100.00
3464;BME280;3551;41.578;24.706;2024-02-21T06:08:06;91719.13;;;2.48;100.00
3464;BME280;3551;41.578;24.706;2024-02-21T06:10:35;91679.75;;;2.43;100.00
3464;BME280;3551;41.578;24.706;2024-02-21T06:13:04;91705.84;;;2.68;100.00
3464;BME280;3551;41.578;24.706;2024-02-21T06:15:30;91728.81;;;2.56;100.00
3464;BME280;3551;41.578;24.706;2024-02-21T06:18:01;91703.75;;;2.62;100.00
3464;BME280;3551;41.578;24.706;2024-02-21T06:20:30;91707.03;;;2.59;100.00
3464;BME280;3551;41.578;24.706;2024-02-21T06:22:57;91678.13;;;2.62;100.00
3464;BME280;3551;41.578;24.706;2024-02-21T06:25:29;91706.06;;;2.88;100.00
3464;BME280;3551;41.578;24.706;2024-02-21T06:27:59;91717.50;;;2.79;100.00
3464;BME280;3551;41.578;24.706;2024-02-21T06:30:29;91716.31;;;2.77;100.00
3464;BME280;3551;41.578;24.706;2024-02-21T06:32:56;91720.47;;;2.78;100.00
3464;BME280;3551;41.578;24.706;2024-02-21T06:35:24;91714.41;;;2.90;100.00
3464;BME280;3551;41.578;24.706;2024-02-21T06:37:51;91720.25;;;2.83;100.00
3464;BME280;3551;41.578;24.706;2024-02-21T06:40:21;91699.34;;;2.78;100.00
3464;BME280;3551;41.578;24.706;2024-02-21T06:42:50;91736.00;;;2.92;100.00
3464;BME280;3551;41.578;24.706;2024-02-21T06:45:17;91716.94;;;2.98;100.00
3464;BME280;3551;41.578;24.706;2024-02-21T06:47:44;91741.06;;;2.97;100.00
3464;BME280;3551;41.578;24.706;2024-02-21T06:50:11;91695.94;;;2.65;100.00
3464;BME280;3551;41.578;24.706;2024-02-21T06:52:38;91698.91;;;2.88;100.00
3464;BME280;3551;41.578;24.706;2024-02-21T06:55:05;91708.25;;;2.98;100.00
3464;BME280;3551;41.578;24.706;2024-02-21T06:57:40;91720.34;;;3.11;100.00
3464;BME280;3551;41.578;24.706;2024-02-21T07:00:15;91717.59;;;3.19;100.00
3464;BME280;3551;41.578;24.706;2024-02-21T07:02:44;91712.94;;;3.28;100.00
3464;BME280;3551;41.578;24.706;2024-02-21T07:05:11;91709.41;;;3.36;100.00
3464;BME280;3551;41.578;24.706;2024-02-21T07:07:38;91724.41;;;3.32;100.00
3464;BME280;3551;41.578;24.706;2024-02-21T07:10:09;91710.94;;;3.37;100.00
3464;BME280;3551;41.578;24.706;2024-02-21T07:12:40;91714.56;;;3.33;100.00
3464;BME280;3551;41.578;24.706;2024-02-21T07:15:11;91732.47;;;3.12;100.00
3464;BME280;3551;41.578;24.706;2024-02-21T07:17:57;91711.41;;;3.15;100.00
3464;BME280;3551;41.578;24.706;2024-02-21T07:21:15;91734.09;;;3.04;100.00
